Time;durP1;ratioP1;P1;durP2;ratioP2;P2;SDS_P1;SDS_P2;PMS_P1;PMS_P2;Temp;Humidity;BMP_temperature;BMP_pressure;BME280_temperature;BME280_humidity;BME280_pressure;Samples;Min_cycle;Max_cycle;Signal;HPM_P1;HPM_P2
2022/03/05 00:01:45;;;;;;;16.58;9.95;;;-1.00;99.90;;;;;;4992655;28;20050;-65
2022/03/05 00:04:12;;;;;;;15.88;10.13;;;-1.00;99.90;;;;;;4992843;28;20069;-65
2022/03/05 00:06:37;;;;;;;14.98;9.30;;;-1.00;99.90;;;;;;4973668;28;20407;-65
2022/03/05 00:09:03;;;;;;;15.30;9.90;;;-1.00;99.90;;;;;;4973300;28;20051;-68
2022/03/05 00:11:28;;;;;;;16.80;10.65;;;-1.10;99.90;;;;;;4987714;28;20054;-66
2022/03/05 00:13:54;;;;;;;17.35;10.55;;;-1.10;99.90;;;;;;4992689;28;20113;-67
2022/03/05 00:16:20;;;;;;;15.18;10.13;;;-1.10;99.90;;;;;;4992178;28;20447;-64
2022/03/05 00:18:45;;;;;;;18.60;10.38;;;-1.20;99.90;;;;;;4976656;28;20054;-63
2022/03/05 00:21:11;;;;;;;15.35;9.95;;;-1.20;99.90;;;;;;4972988;28;20054;-64
2022/03/05 00:23:37;;;;;;;17.52;10.07;;;-1.20;99.90;;;;;;4973584;28;20054;-65
2022/03/05 00:26:03;;;;;;;18.88;10.60;;;-1.20;99.90;;;;;;4986942;28;20056;-65
2022/03/05 00:28:28;;;;;;;16.45;10.15;;;-1.20;99.90;;;;;;4988403;28;20050;-64
2022/03/05 00:30:58;;;;;;;17.17;9.88;;;-1.20;99.90;;;;;;4976349;28;20090;-64
2022/03/05 00:33:23;;;;;;;16.80;9.90;;;-1.20;99.90;;;;;;4977676;28;20102;-66
2022/03/05 00:35:49;;;;;;;15.68;9.70;;;-1.30;99.90;;;;;;4976522;28;20051;-64
2022/03/05 00:38:14;;;;;;;20.58;10.80;;;-1.30;99.90;;;;;;4976315;28;20062;-65
2022/03/05 00:40:41;;;;;;;19.17;10.32;;;-1.20;99.90;;;;;;4990881;28;20058;-65
2022/03/05 00:43:07;;;;;;;18.10;10.43;;;-1.20;99.90;;;;;;4995722;28;20046;-63
2022/03/05 00:45:32;;;;;;;15.52;9.43;;;-1.30;99.90;;;;;;4991158;28;20035;-64
2022/03/05 00:47:58;;;;;;;20.05;10.82;;;-1.30;99.90;;;;;;4976567;28;20101;-65
2022/03/05 00:50:23;;;;;;;19.15;10.38;;;-1.20;99.90;;;;;;4976455;28;20129;-64
2022/03/05 00:52:49;;;;;;;17.10;10.05;;;-1.30;99.90;;;;;;4976392;28;20110;-65
2022/03/05 00:55:15;;;;;;;17.13;9.75;;;-1.30;99.90;;;;;;4976086;28;20050;-64
2022/03/05 00:57:40;;;;;;;17.65;10.43;;;-1.30;99.90;;;;;;4976070;28;20134;-64
2022/03/05 01:00:10;;;;;;;17.02;10.20;;;-1.30;99.90;;;;;;4988051;28;20042;-64
2022/03/05 01:02:37;;;;;;;15.85;10.02;;;-1.30;99.90;;;;;;4995683;28;20121;-66
2022/03/05 01:05:02;;;;;;;18.50;10.20;;;-1.30;99.90;;;;;;4995113;28;20049;-66
2022/03/05 01:07:28;;;;;;;17.45;10.23;;;-1.30;99.90;;;;;;4995556;28;20112;-65
2022/03/05 01:09:54;;;;;;;17.83;10.45;;;-1.30;99.90;;;;;;4979571;28;20058;-64
2022/03/05 01:12:19;;;;;;;16.15;9.82;;;-1.30;99.90;;;;;;4993425;28;20062;-65
2022/03/05 01:14:45;;;;;;;16.17;9.80;;;-1.30;99.90;;;;;;4986911;28;20049;-63
2022/03/05 01:17:11;;;;;;;19.27;10.88;;;-1.30;99.90;;;;;;4996262;28;20042;-64
2022/03/05 01:19:36;;;;;;;17.17;10.25;;;-1.40;99.90;;;;;;4995096;28;20104;-64
2022/03/05 01:22:02;;;;;;;17.67;9.45;;;-1.40;99.90;;;;;;4988403;28;20043;-64
2022/03/05 01:24:28;;;;;;;15.80;9.32;;;-1.40;99.90;;;;;;4975882;28;20051;-66
2022/03/05 01:26:53;;;;;;;21.70;10.80;;;-1.40;99.90;;;;;;4990143;28;20049;-63
2022/03/05 01:29:19;;;;;;;19.45;10.30;;;-1.40;99.90;;;;;;4995676;28;20430;-64
2022/03/05 01:31:44;;;;;;;16.63;9.40;;;-1.40;99.90;;;;;;4994996;28;20046;-65
2022/03/05 01:34:10;;;;;;;18.98;10.55;;;-1.50;99.90;;;;;;4994256;28;20048;-64
2022/03/05 01:36:36;;;;;;;15.98;9.27;;;-1.40;99.90;;;;;;4975587;28;20443;-64
2022/03/05 01:39:01;;;;;;;17.98;10.15;;;-1.50;99.90;;;;;;4988004;28;20519;-65
2022/03/05 01:41:28;;;;;;;17.10;9.88;;;-1.50;99.90;;;;;;4987064;28;20054;-63
2022/03/05 01:43:53;;;;;;;16.35;9.80;;;-1.50;99.90;;;;;;4975625;28;20125;-64
2022/03/05 01:46:35;;;;;;;19.85;10.30;;;-1.50;99.90;;;;;;4975856;28;20125;-65
2022/03/05 01:49:05;;;;;;;17.38;9.65;;;-1.50;99.90;;;;;;4976858;28;20054;-64
2022/03/05 01:51:31;;;;;;;17.10;9.32;;;-1.50;99.90;;;;;;4975149;28;20101;-63
2022/03/05 01:53:56;;;;;;;17.45;10.00;;;-1.50;99.90;;;;;;4982625;28;20068;-64
2022/03/05 01:56:24;;;;;;;18.15;8.88;;;-1.50;99.90;;;;;;4992215;28;20410;-64
2022/03/05 01:58:50;;;;;;;17.02;9.80;;;-1.50;99.90;;;;;;4995882;28;20125;-65
2022/03/05 02:01:15;;;;;;;15.90;9.50;;;-1.60;99.90;;;;;;4993489;28;20514;-64
2022/03/05 02:03:41;;;;;;;19.05;10.10;;;-1.60;99.90;;;;;;4994976;28;20052;-64
2022/03/05 02:06:07;;;;;;;15.25;9.02;;;-1.60;99.90;;;;;;4993533;28;20172;-66
2022/03/05 02:08:32;;;;;;;16.98;9.90;;;-1.60;99.90;;;;;;4993939;28;20376;-65
2022/03/05 02:10:58;;;;;;;15.52;9.07;;;-1.60;99.90;;;;;;4994708;28;20042;-65
2022/03/05 02:13:25;;;;;;;17.48;9.68;;;-1.70;99.90;;;;;;4992478;28;20542;-65
2022/03/05 02:15:57;;;;;;;17.10;9.75;;;-1.70;99.90;;;;;;4994675;28;20124;-65
2022/03/05 02:18:23;;;;;;;17.25;9.60;;;-1.70;99.90;;;;;;4994463;28;20707;-64
2022/03/05 02:20:52;;;;;;;15.70;8.63;;;-1.60;99.90;;;;;;4994033;28;20051;-65
2022/03/05 02:23:18;;;;;;;17.55;9.35;;;-1.60;99.90;;;;;;4994163;28;20108;-64
2022/03/05 02:25:55;;;;;;;15.93;9.40;;;-1.70;99.90;;;;;;4993473;28;20129;-63
2022/03/05 02:28:23;;;;;;;14.85;9.25;;;-1.70;99.90;;;;;;4993759;28;20050;-66
2022/03/05 02:30:48;;;;;;;15.27;8.70;;;-1.80;99.90;;;;;;4992767;28;20046;-64
2022/03/05 02:33:15;;;;;;;15.77;8.90;;;-1.70;99.90;;;;;;4993161;28;20478;-64
2022/03/05 02:35:45;;;;;;;16.58;8.43;;;-1.70;99.90;;;;;;4995371;28;20379;-65
2022/03/05 02:38:16;;;;;;;15.25;8.70;;;-1.70;99.90;;;;;;4979769;28;20422;-64
2022/03/05 02:40:43;;;;;;;14.40;9.07;;;-1.70;99.90;;;;;;4981001;28;20057;-63
2022/03/05 02:43:09;;;;;;;15.35;8.23;;;-1.80;99.90;;;;;;4993141;28;20050;-64
2022/03/05 02:45:35;;;;;;;15.32;8.63;;;-1.80;99.90;;;;;;4993290;28;20423;-63
2022/03/05 02:48:03;;;;;;;14.25;8.20;;;-1.80;99.90;;;;;;4992359;28;20050;-64
2022/03/05 02:50:29;;;;;;;13.85;8.35;;;-1.70;99.90;;;;;;4993301;28;20050;-64
2022/03/05 02:52:55;;;;;;;15.50;8.30;;;-1.70;99.90;;;;;;4994636;28;20049;-64
2022/03/05 02:55:20;;;;;;;15.88;8.57;;;-1.80;99.90;;;;;;4979835;28;20047;-63
2022/03/05 02:57:46;;;;;;;13.55;8.55;;;-1.80;99.90;;;;;;4974075;28;20089;-65
2022/03/05 03:00:12;;;;;;;12.65;7.88;;;-1.80;99.90;;;;;;4980334;28;20050;-65
2022/03/05 03:02:38;;;;;;;16.30;8.32;;;-1.80;99.90;;;;;;4991105;28;20072;-63
2022/03/05 03:05:05;;;;;;;14.45;7.85;;;-1.80;99.90;;;;;;4993590;28;20046;-64
2022/03/05 03:07:31;;;;;;;13.40;7.55;;;-1.80;99.90;;;;;;4993416;28;20061;-65
2022/03/05 03:09:58;;;;;;;12.35;7.78;;;-1.80;99.90;;;;;;4992500;28;20367;-64
2022/03/05 03:12:25;;;;;;;14.57;7.68;;;-1.80;99.90;;;;;;4992999;28;20046;-65
2022/03/05 03:14:50;;;;;;;13.27;7.65;;;-1.80;99.90;;;;;;4994018;28;20049;-65
2022/03/05 03:17:17;;;;;;;16.58;8.63;;;-1.80;99.90;;;;;;4993420;28;20050;-66
2022/03/05 03:19:42;;;;;;;12.80;7.63;;;-1.80;99.90;;;;;;4992878;28;20069;-63
2022/03/05 03:22:08;;;;;;;13.00;7.55;;;-1.80;99.90;;;;;;4993191;28;20054;-66
2022/03/05 03:24:33;;;;;;;18.08;8.77;;;-1.80;99.90;;;;;;4978189;28;20054;-65
2022/03/05 03:26:59;;;;;;;13.20;7.82;;;-1.80;99.90;;;;;;4973660;28;20169;-63
2022/03/05 03:29:25;;;;;;;15.05;8.13;;;-1.80;99.90;;;;;;4977294;28;20046;-64
2022/03/05 03:31:50;;;;;;;14.35;7.93;;;-1.80;99.90;;;;;;4992914;28;20150;-65
2022/03/05 03:34:16;;;;;;;12.77;7.50;;;-1.80;99.90;;;;;;4992309;28;20052;-66
2022/03/05 03:36:41;;;;;;;15.60;7.90;;;-1.80;99.90;;;;;;4985072;28;20054;-65
2022/03/05 03:39:07;;;;;;;14.23;8.23;;;-1.80;99.90;;;;;;4974052;28;20051;-65
2022/03/05 03:41:32;;;;;;;14.05;8.10;;;-1.80;99.90;;;;;;4957098;28;20419;-67
2022/03/05 03:43:58;;;;;;;16.50;8.00;;;-1.90;99.90;;;;;;4983225;28;20046;-64
2022/03/05 03:46:23;;;;;;;14.35;7.72;;;-1.80;99.90;;;;;;4992755;28;20399;-66
2022/03/05 03:48:49;;;;;;;15.13;7.65;;;-1.80;99.90;;;;;;4992972;28;20490;-66
2022/03/05 03:51:14;;;;;;;12.88;7.75;;;-1.80;99.90;;;;;;4991903;28;20501;-65
2022/03/05 03:53:40;;;;;;;13.55;7.90;;;-1.80;99.90;;;;;;4992457;28;20058;-65
2022/03/05 03:56:06;;;;;;;15.80;7.57;;;-1.80;99.90;;;;;;4992209;28;20106;-67
2022/03/05 03:58:31;;;;;;;13.50;7.25;;;-1.80;99.90;;;;;;4992143;28;20050;-64
2022/03/05 04:00:57;;;;;;;15.85;7.57;;;-1.80;99.90;;;;;;4992315;28;20351;-65
2022/03/05 04:03:22;;;;;;;14.50;7.93;;;-1.80;99.90;;;;;;4993073;28;20364;-68
2022/03/05 04:05:48;;;;;;;13.57;7.53;;;-1.70;99.90;;;;;;4973400;28;20387;-66
2022/03/05 04:10:58;;;;;;;13.57;8.07;;;-1.80;99.90;;;;;;4973035;28;20125;-66
2022/03/05 04:13:23;;;;;;;14.02;7.75;;;-1.80;99.90;;;;;;4988440;28;20134;-67
2022/03/05 04:15:49;;;;;;;15.98;8.60;;;-1.80;99.90;;;;;;4990666;28;20089;-64
2022/03/05 04:18:15;;;;;;;15.23;7.22;;;-1.90;99.90;;;;;;4972764;28;20081;-66
2022/03/05 04:20:40;;;;;;;14.93;8.32;;;-1.90;99.90;;;;;;4973165;28;20054;-66
2022/03/05 04:23:06;;;;;;;13.38;7.85;;;-1.80;99.90;;;;;;4974126;28;20083;-64
2022/03/05 04:25:32;;;;;;;16.88;7.93;;;-1.90;99.90;;;;;;4991471;28;20046;-65
2022/03/05 04:27:57;;;;;;;13.55;7.45;;;-1.90;99.90;;;;;;4992125;28;20165;-65
2022/03/05 04:30:23;;;;;;;15.18;7.55;;;-1.80;99.90;;;;;;4991558;28;20390;-64
2022/03/05 04:32:49;;;;;;;14.57;7.95;;;-1.80;99.90;;;;;;4974189;28;20209;-66
2022/03/05 04:35:14;;;;;;;13.82;8.20;;;-1.80;99.90;;;;;;4972773;28;20097;-65
2022/03/05 04:37:40;;;;;;;15.50;7.97;;;-1.80;99.90;;;;;;4977640;28;20356;-65
2022/03/05 04:40:07;;;;;;;15.68;8.43;;;-1.90;99.90;;;;;;4976066;28;20050;-64
2022/03/05 04:42:32;;;;;;;15.77;7.90;;;-1.80;99.90;;;;;;4984791;28;20050;-66
2022/03/05 04:44:58;;;;;;;18.85;8.98;;;-1.90;99.90;;;;;;4972908;28;20391;-65
2022/03/05 04:47:24;;;;;;;15.05;8.13;;;-1.90;99.90;;;;;;4956334;28;20451;-66
2022/03/05 04:49:50;;;;;;;14.65;8.02;;;-1.90;99.90;;;;;;4972805;28;20050;-67
2022/03/05 04:52:16;;;;;;;13.20;7.43;;;-1.90;99.90;;;;;;4975260;28;20061;-65
2022/03/05 04:54:41;;;;;;;14.77;8.13;;;-1.90;99.90;;;;;;4992010;28;20061;-65
2022/03/05 04:57:07;;;;;;;18.98;7.72;;;-2.00;99.90;;;;;;4975371;28;20082;-66
2022/03/05 04:59:33;;;;;;;15.95;7.47;;;-1.90;99.90;;;;;;4972575;28;20133;-64
2022/03/05 05:01:58;;;;;;;16.15;8.13;;;-1.90;99.90;;;;;;4972148;28;20065;-66
2022/03/05 05:04:24;;;;;;;16.08;8.40;;;-1.90;99.90;;;;;;4974583;28;20061;-64
2022/03/05 05:06:50;;;;;;;13.43;7.72;;;-1.90;99.90;;;;;;4991274;28;20050;-64
2022/03/05 05:09:15;;;;;;;15.30;7.10;;;-2.00;99.90;;;;;;4991781;28;20084;-64
2022/03/05 05:11:44;;;;;;;15.75;8.13;;;-2.00;99.90;;;;;;4992458;28;20046;-64
2022/03/05 05:14:10;;;;;;;14.02;8.20;;;-2.00;99.90;;;;;;4994887;28;20360;-65
2022/03/05 05:16:37;;;;;;;16.98;8.23;;;-2.10;99.90;;;;;;4995601;28;20510;-63
2022/03/05 05:21:46;;;;;;;14.45;8.05;;;-2.20;99.90;;;;;;4976923;28;20050;-66
2022/03/05 05:24:12;;;;;;;16.38;8.35;;;-2.20;99.90;;;;;;4967331;28;20046;-62
2022/03/05 05:26:38;;;;;;;14.27;7.40;;;-2.20;99.90;;;;;;4994830;28;20046;-66
2022/03/05 05:29:03;;;;;;;12.73;7.40;;;-2.30;99.90;;;;;;4995649;28;20390;-63
2022/03/05 05:31:29;;;;;;;14.88;8.45;;;-2.20;99.90;;;;;;4980663;28;20047;-65
2022/03/05 05:33:55;;;;;;;12.95;7.68;;;-2.20;99.90;;;;;;4976065;28;20408;-63
2022/03/05 05:36:20;;;;;;;13.57;7.85;;;-2.30;99.90;;;;;;4976853;28;20066;-67
2022/03/05 05:38:46;;;;;;;16.63;7.57;;;-2.30;99.90;;;;;;4982238;28;20099;-64
2022/03/05 05:41:16;;;;;;;16.92;7.93;;;-2.30;99.90;;;;;;4994344;28;20050;-63
2022/03/05 05:43:41;;;;;;;18.05;7.95;;;-2.20;99.90;;;;;;4995218;28;20173;-63
2022/03/05 05:46:07;;;;;;;17.30;7.95;;;-2.20;99.90;;;;;;4994832;28;20082;-63
2022/03/05 05:48:33;;;;;;;17.35;8.93;;;-2.20;99.90;;;;;;4993631;28;20465;-64
2022/03/05 05:50:58;;;;;;;14.68;7.55;;;-2.20;99.90;;;;;;4993930;28;20038;-65
2022/03/05 05:53:25;;;;;;;15.85;8.35;;;-2.20;99.90;;;;;;4992589;28;20039;-64
2022/03/05 05:55:53;;;;;;;13.07;7.50;;;-2.20;99.90;;;;;;4996605;28;20141;-63
2022/03/05 05:58:19;;;;;;;14.20;7.18;;;-2.20;99.90;;;;;;4994406;28;20046;-63
2022/03/05 06:00:45;;;;;;;13.93;7.68;;;-2.20;99.90;;;;;;4979062;28;20050;-65
2022/03/05 06:03:10;;;;;;;13.90;7.82;;;-2.20;99.90;;;;;;4993568;28;20097;-63
2022/03/05 06:05:36;;;;;;;14.25;8.15;;;-2.20;99.90;;;;;;4993849;28;20046;-63
2022/03/05 06:08:02;;;;;;;15.15;8.32;;;-2.20;99.90;;;;;;4994556;28;20399;-64
2022/03/05 06:10:28;;;;;;;14.95;7.97;;;-2.20;99.90;;;;;;4994794;28;20434;-65
2022/03/05 06:12:53;;;;;;;12.13;7.00;;;-2.20;99.90;;;;;;4993299;28;20057;-65
2022/03/05 06:15:19;;;;;;;16.33;8.00;;;-2.20;99.90;;;;;;4994715;28;20050;-66
2022/03/05 06:17:45;;;;;;;12.38;7.25;;;-2.20;99.90;;;;;;4993786;28;20439;-64
2022/03/05 06:20:11;;;;;;;14.85;7.53;;;-2.20;99.90;;;;;;4994346;28;20046;-64
2022/03/05 06:22:37;;;;;;;13.57;7.72;;;-2.20;99.90;;;;;;4993282;28;20049;-62
2022/03/05 06:25:04;;;;;;;14.35;7.28;;;-2.10;99.90;;;;;;4986522;28;20042;-64
2022/03/05 06:27:30;;;;;;;15.05;8.38;;;-2.10;99.90;;;;;;4983822;28;20046;-64
2022/03/05 06:29:55;;;;;;;14.20;7.53;;;-2.10;99.90;;;;;;4990024;28;20050;-65
2022/03/05 06:32:21;;;;;;;12.65;7.20;;;-2.10;99.90;;;;;;4974586;28;20113;-62
2022/03/05 06:34:47;;;;;;;11.68;6.72;;;-2.00;99.90;;;;;;4991672;28;20066;-65
2022/03/05 06:37:12;;;;;;;14.32;7.43;;;-2.00;99.90;;;;;;4994979;28;20057;-63
2022/03/05 06:39:40;;;;;;;14.30;7.35;;;-2.00;99.90;;;;;;4985012;28;20054;-64
2022/03/05 06:42:06;;;;;;;12.88;6.75;;;-2.00;99.90;;;;;;4983769;28;20046;-67
2022/03/05 06:44:35;;;;;;;15.80;7.03;;;-1.90;99.90;;;;;;4988089;28;20042;-62
2022/03/05 06:47:01;;;;;;;14.98;7.82;;;-1.90;99.90;;;;;;4993562;28;20054;-62
2022/03/05 06:49:27;;;;;;;15.35;6.68;;;-1.90;99.90;;;;;;4993169;28;20056;-66
2022/03/05 06:51:52;;;;;;;13.15;6.88;;;-1.80;99.90;;;;;;4984862;28;20050;-65
2022/03/05 06:54:18;;;;;;;13.98;6.78;;;-1.80;99.90;;;;;;4986164;28;20069;-66
2022/03/05 06:56:44;;;;;;;13.43;7.18;;;-1.80;99.90;;;;;;4976027;28;20085;-65
2022/03/05 06:59:10;;;;;;;14.02;7.75;;;-1.70;99.90;;;;;;4992408;28;20038;-64
2022/03/05 07:01:38;;;;;;;13.73;7.72;;;-1.60;99.90;;;;;;4992873;28;20125;-64
2022/03/05 07:04:03;;;;;;;12.73;7.60;;;-1.60;99.90;;;;;;4986930;28;20057;-65
2022/03/05 07:06:29;;;;;;;12.70;7.80;;;-1.50;99.90;;;;;;4986350;28;20042;-66
2022/03/05 07:08:55;;;;;;;14.45;8.00;;;-1.50;99.90;;;;;;4980907;28;20089;-64
2022/03/05 07:11:20;;;;;;;11.43;7.57;;;-1.50;99.90;;;;;;4992755;28;20395;-63
2022/03/05 07:13:46;;;;;;;13.30;7.90;;;-1.40;99.90;;;;;;4993931;28;20047;-65
2022/03/05 07:16:11;;;;;;;15.57;7.82;;;-1.30;99.90;;;;;;4990531;28;20506;-66
2022/03/05 07:18:37;;;;;;;12.85;7.68;;;-1.30;99.90;;;;;;4992688;28;20045;-66
2022/03/05 07:21:02;;;;;;;16.38;8.40;;;-1.20;99.90;;;;;;4992248;28;20418;-66
2022/03/05 07:23:28;;;;;;;14.15;8.23;;;-1.10;99.90;;;;;;4993103;28;21924;-66
2022/03/05 07:25:54;;;;;;;13.25;8.13;;;-1.10;99.90;;;;;;4983292;28;20104;-66
2022/03/05 07:28:21;;;;;;;16.95;8.30;;;-1.00;99.90;;;;;;4985434;28;20073;-66
2022/03/05 07:30:47;;;;;;;12.23;7.57;;;-0.90;99.90;;;;;;4989544;28;20050;-67
2022/03/05 07:33:13;;;;;;;14.50;8.38;;;-0.70;99.90;;;;;;4988714;28;20374;-66
2022/03/05 07:35:39;;;;;;;12.90;7.90;;;-0.70;99.90;;;;;;4988167;28;20058;-65
2022/03/05 07:38:05;;;;;;;16.00;9.70;;;-0.60;99.90;;;;;;4987209;28;20050;-65
2022/03/05 07:40:31;;;;;;;14.85;8.68;;;-0.50;99.90;;;;;;4982043;28;20380;-68
2022/03/05 07:42:57;;;;;;;16.60;8.82;;;-0.40;99.90;;;;;;4979067;28;20384;-65
2022/03/05 07:45:23;;;;;;;16.58;8.82;;;-0.30;99.90;;;;;;4984612;28;20046;-66
2022/03/05 07:47:48;;;;;;;15.82;8.95;;;-0.20;99.90;;;;;;4986399;28;20132;-64
2022/03/05 07:50:14;;;;;;;14.23;8.88;;;-0.10;99.90;;;;;;4983268;28;20423;-66
2022/03/05 07:52:40;;;;;;;16.42;9.07;;;-0.10;99.90;;;;;;4988579;28;20129;-66
2022/03/05 07:55:06;;;;;;;13.60;8.25;;;0.10;99.90;;;;;;4990962;28;20042;-66
2022/03/05 07:57:33;;;;;;;15.90;8.80;;;0.20;99.90;;;;;;4973909;28;20100;-66
2022/03/05 07:59:58;;;;;;;15.82;9.15;;;0.20;99.90;;;;;;4978714;28;20378;-65
2022/03/05 08:02:24;;;;;;;16.05;9.40;;;0.40;99.90;;;;;;4985543;28;20043;-66
2022/03/05 08:04:49;;;;;;;15.40;9.07;;;0.50;99.90;;;;;;4985207;28;20126;-68
2022/03/05 08:07:15;;;;;;;14.52;9.00;;;0.50;99.90;;;;;;4989341;28;20054;-65
2022/03/05 08:09:43;;;;;;;17.13;8.90;;;0.60;99.90;;;;;;4974273;28;20046;-64
2022/03/05 08:12:10;;;;;;;15.73;9.02;;;0.70;99.90;;;;;;4991039;28;20042;-65
2022/03/05 08:14:41;;;;;;;16.30;9.05;;;0.80;99.90;;;;;;4992371;28;20189;-66
2022/03/05 08:17:07;;;;;;;16.73;10.27;;;0.90;99.90;;;;;;4989261;28;20047;-64
2022/03/05 08:19:32;;;;;;;14.10;9.27;;;1.00;99.90;;;;;;4982039;28;20125;-68
2022/03/05 08:21:58;;;;;;;16.65;9.70;;;1.10;99.90;;;;;;4983115;28;20062;-66
2022/03/05 08:24:23;;;;;;;18.08;9.45;;;1.20;99.90;;;;;;4987152;28;20043;-67
2022/03/05 08:26:49;;;;;;;17.85;9.75;;;1.20;99.90;;;;;;4992026;28;20046;-65
2022/03/05 08:29:14;;;;;;;17.85;9.95;;;1.40;99.90;;;;;;4992282;28;20092;-66
2022/03/05 08:31:40;;;;;;;17.80;9.85;;;1.40;99.90;;;;;;4975316;28;20082;-64
2022/03/05 08:34:06;;;;;;;17.00;10.00;;;1.50;99.90;;;;;;4993592;28;20054;-64
2022/03/05 08:36:35;;;;;;;18.20;9.23;;;1.50;99.90;;;;;;4986736;28;20043;-64
2022/03/05 08:39:00;;;;;;;18.67;9.93;;;1.60;99.90;;;;;;4979908;28;20053;-65
2022/03/05 08:41:27;;;;;;;17.67;9.82;;;1.70;99.90;;;;;;4985754;28;20466;-65
2022/03/05 08:43:52;;;;;;;18.17;10.32;;;1.80;99.90;;;;;;4983897;28;20416;-64
2022/03/05 08:46:19;;;;;;;21.52;10.95;;;1.90;99.90;;;;;;4990567;28;20053;-66
2022/03/05 08:48:44;;;;;;;19.27;9.43;;;1.90;99.90;;;;;;4994684;28;20054;-66
2022/03/05 08:51:10;;;;;;;18.35;9.63;;;2.00;99.90;;;;;;4996337;28;20050;-65
2022/03/05 08:53:35;;;;;;;20.48;10.93;;;2.10;99.90;;;;;;4995730;28;20046;-64
2022/03/05 08:56:01;;;;;;;18.60;10.38;;;2.20;99.90;;;;;;4981026;28;20260;-66
2022/03/05 08:58:27;;;;;;;18.10;10.45;;;2.20;99.90;;;;;;4992318;28;20054;-66
2022/03/05 09:00:53;;;;;;;18.50;10.52;;;2.30;99.90;;;;;;4996173;28;20045;-64
2022/03/05 09:03:19;;;;;;;21.80;11.52;;;2.30;99.90;;;;;;4995864;28;20046;-66
2022/03/05 09:05:46;;;;;;;19.88;10.38;;;2.50;99.90;;;;;;4998859;28;20053;-66
2022/03/05 09:08:12;;;;;;;20.15;10.73;;;2.50;99.90;;;;;;4997487;28;20077;-64
2022/03/05 09:10:38;;;;;;;18.58;10.55;;;2.50;99.90;;;;;;4993958;28;20395;-63
2022/03/05 09:13:03;;;;;;;19.60;10.80;;;2.60;99.90;;;;;;4996325;28;20084;-66
2022/03/05 09:15:30;;;;;;;21.15;11.65;;;2.60;99.90;;;;;;4996009;28;20185;-63
2022/03/05 09:17:56;;;;;;;20.92;11.48;;;2.70;99.90;;;;;;4996455;28;20493;-66
2022/03/05 09:20:23;;;;;;;20.02;10.88;;;2.70;99.90;;;;;;4994972;28;20050;-64
2022/03/05 09:22:49;;;;;;;19.52;10.88;;;2.90;99.90;;;;;;4977936;28;20522;-66
2022/03/05 09:25:15;;;;;;;21.27;11.15;;;3.00;99.90;;;;;;4993596;28;20062;-65
2022/03/05 09:27:41;;;;;;;19.45;11.65;;;3.10;99.90;;;;;;4973624;28;20049;-64
2022/03/05 09:30:10;;;;;;;21.52;11.38;;;3.10;99.90;;;;;;4989457;28;20038;-65
2022/03/05 09:32:36;;;;;;;21.48;11.63;;;3.20;99.90;;;;;;4987578;28;20061;-65
2022/03/05 09:35:03;;;;;;;20.80;11.23;;;3.30;99.90;;;;;;4981091;28;20052;-65
2022/03/05 09:37:30;;;;;;;21.48;11.73;;;3.30;99.90;;;;;;4995006;28;20051;-64
2022/03/05 09:39:56;;;;;;;18.25;10.77;;;3.40;99.90;;;;;;4995162;28;20046;-65
2022/03/05 09:42:23;;;;;;;20.25;11.68;;;3.90;99.90;;;;;;4993463;28;20533;-65
2022/03/05 09:44:49;;;;;;;21.98;11.70;;;3.50;99.90;;;;;;4983992;28;20438;-66
2022/03/05 09:47:15;;;;;;;20.27;12.13;;;3.50;99.90;;;;;;4988395;28;20126;-63
2022/03/05 09:49:41;;;;;;;21.58;12.57;;;3.60;99.90;;;;;;4985344;28;20045;-64
2022/03/05 09:52:07;;;;;;;19.88;11.38;;;3.70;99.90;;;;;;4993763;28;20486;-65
2022/03/05 09:54:33;;;;;;;19.58;11.77;;;3.80;99.90;;;;;;4978112;28;20042;-64
2022/03/05 09:56:59;;;;;;;20.35;11.75;;;3.80;99.90;;;;;;4995009;28;20061;-64
2022/03/05 09:59:24;;;;;;;18.90;11.85;;;3.90;99.90;;;;;;4995023;28;20533;-64
2022/03/05 10:01:51;;;;;;;23.50;12.48;;;3.80;99.90;;;;;;4994640;28;20140;-63
2022/03/05 10:04:22;;;;;;;20.17;11.93;;;3.80;99.90;;;;;;4992527;28;20049;-67
2022/03/05 10:07:08;;;;;;;27.25;12.82;;;3.80;99.90;;;;;;4984690;28;20068;-65
2022/03/05 10:09:34;;;;;;;21.65;12.48;;;3.90;99.90;;;;;;4983696;28;20050;-63
2022/03/05 10:12:01;;;;;;;19.58;11.98;;;4.00;99.90;;;;;;4968583;28;20046;-64
2022/03/05 10:14:26;;;;;;;23.70;12.18;;;4.00;99.90;;;;;;4986623;28;20065;-64
2022/03/05 10:17:04;;;;;;;21.73;12.75;;;4.10;99.90;;;;;;4985982;28;20046;-65
2022/03/05 10:19:30;;;;;;;21.85;13.00;;;4.50;99.90;;;;;;4985531;28;20061;-63
2022/03/05 10:22:03;;;;;;;24.17;13.25;;;4.50;99.90;;;;;;4988457;28;20463;-66
2022/03/05 10:24:37;;;;;;;22.20;12.60;;;4.20;99.90;;;;;;4994238;28;20108;-64
2022/03/05 10:27:04;;;;;;;20.50;12.90;;;4.20;99.90;;;;;;4992848;28;20164;-63
2022/03/05 10:29:35;;;;;;;23.85;14.90;;;4.40;99.90;;;;;;4994199;28;20486;-66
2022/03/05 10:32:05;;;;;;;22.70;12.70;;;4.60;99.90;;;;;;4994239;28;20061;-65
2022/03/05 10:34:50;;;;;;;22.33;13.63;;;4.40;99.90;;;;;;4993252;28;20057;-65
2022/03/05 10:37:17;;;;;;;21.42;12.55;;;4.30;99.90;;;;;;4987842;28;20507;-65
2022/03/05 10:39:43;;;;;;;23.50;13.90;;;4.30;99.90;;;;;;4986504;28;20055;-64
2022/03/05 10:42:19;;;;;;;21.60;13.02;;;4.60;99.90;;;;;;4989936;28;20391;-65
2022/03/05 10:45:05;;;;;;;24.15;14.32;;;4.40;99.90;;;;;;4994120;28;20185;-64
2022/03/05 10:47:41;;;;;;;24.13;14.23;;;4.60;99.90;;;;;;4976995;28;20061;-64
2022/03/05 10:50:20;;;;;;;24.90;13.35;;;4.70;99.90;;;;;;4988063;28;20038;-64
2022/03/05 10:52:47;;;;;;;22.48;13.10;;;4.80;99.90;;;;;;4985212;28;20122;-64
2022/03/05 10:55:25;;;;;;;26.17;14.60;;;4.80;99.90;;;;;;4993434;28;20049;-64
2022/03/05 10:58:17;;;;;;;23.10;13.68;;;4.80;99.90;;;;;;4984774;28;20049;-64
2022/03/05 11:00:43;;;;;;;23.93;13.17;;;5.10;99.90;;;;;;4983147;28;21418;-64
2022/03/05 11:03:08;;;;;;;25.20;14.10;;;5.20;99.90;;;;;;4983035;28;20051;-65
2022/03/05 11:05:34;;;;;;;24.08;13.88;;;5.10;99.90;;;;;;4982960;28;20442;-66
2022/03/05 11:08:01;;;;;;;23.42;13.65;;;5.10;99.90;;;;;;4985795;28;20463;-64
2022/03/05 11:10:29;;;;;;;23.95;13.23;;;5.10;99.90;;;;;;4986093;28;21299;-65
2022/03/05 11:13:02;;;;;;;21.45;13.65;;;5.30;99.90;;;;;;4987577;28;20057;-63
2022/03/05 11:15:29;;;;;;;22.67;13.60;;;5.20;99.90;;;;;;4991622;28;20479;-64
2022/03/05 11:17:55;;;;;;;23.10;14.52;;;5.20;99.90;;;;;;4985709;28;20110;-67
2022/03/05 11:20:21;;;;;;;23.35;13.18;;;5.40;99.90;;;;;;4989172;28;20069;-68
2022/03/05 11:22:51;;;;;;;23.92;14.02;;;5.50;99.90;;;;;;4986977;28;20401;-65
2022/03/05 11:25:21;;;;;;;23.08;14.07;;;5.50;99.90;;;;;;4974042;28;20121;-65
2022/03/05 11:27:58;;;;;;;20.42;13.40;;;5.50;99.90;;;;;;4982724;28;20047;-65
2022/03/05 11:30:24;;;;;;;24.33;14.35;;;5.50;99.90;;;;;;4985544;28;20046;-66
2022/03/05 11:32:50;;;;;;;23.50;14.20;;;5.50;99.90;;;;;;4985618;28;20046;-66
2022/03/05 11:35:19;;;;;;;28.08;14.57;;;5.60;99.90;;;;;;4982874;28;20138;-67
2022/03/05 11:37:47;;;;;;;25.15;14.00;;;5.60;99.90;;;;;;4981120;28;20081;-66
2022/03/05 11:40:33;;;;;;;25.05;14.20;;;5.70;99.90;;;;;;4984996;28;20121;-65
2022/03/05 11:43:22;;;;;;;21.90;14.15;;;5.70;99.90;;;;;;4981815;28;20483;-64
2022/03/05 11:45:58;;;;;;;25.50;14.02;;;5.70;99.90;;;;;;4985009;28;20069;-64
2022/03/05 11:48:24;;;;;;;23.13;13.27;;;5.80;99.90;;;;;;4983797;28;20483;-64
2022/03/05 11:50:56;;;;;;;26.38;13.88;;;5.80;99.90;;;;;;4983021;28;20109;-65
2022/03/05 11:53:22;;;;;;;23.08;14.80;;;5.80;99.90;;;;;;4983549;28;20046;-66
2022/03/05 11:55:48;;;;;;;25.67;14.68;;;5.80;99.90;;;;;;4983308;28;21479;-66
2022/03/05 11:58:13;;;;;;;27.15;15.70;;;5.90;99.90;;;;;;4973587;28;20042;-65
2022/03/05 12:00:41;;;;;;;26.80;16.17;;;6.00;99.90;;;;;;4986307;28;20471;-67
2022/03/05 12:03:08;;;;;;;24.73;15.13;;;5.90;99.90;;;;;;4965107;28;20098;-66
2022/03/05 12:05:37;;;;;;;23.58;14.93;;;6.00;99.90;;;;;;4983380;28;20045;-68
2022/03/05 12:08:11;;;;;;;27.23;15.35;;;6.10;99.90;;;;;;4983266;28;20077;-65
2022/03/05 12:10:40;;;;;;;25.65;15.52;;;6.30;99.90;;;;;;4977950;28;20055;-65
2022/03/05 12:13:08;;;;;;;28.40;15.90;;;6.30;99.90;;;;;;4972860;28;20471;-65
2022/03/05 12:15:38;;;;;;;26.95;14.60;;;6.40;99.90;;;;;;4973522;28;20514;-65
2022/03/05 12:18:05;;;;;;;26.08;14.90;;;6.40;99.90;;;;;;4986248;28;20073;-66
2022/03/05 12:20:34;;;;;;;23.33;14.50;;;6.30;99.90;;;;;;4991905;28;20121;-66
2022/03/05 12:23:08;;;;;;;27.67;14.88;;;6.40;99.90;;;;;;4990978;28;20035;-66
2022/03/05 12:25:39;;;;;;;25.25;15.38;;;6.40;99.90;;;;;;4993404;28;20058;-65
2022/03/05 12:28:11;;;;;;;22.73;14.32;;;6.50;99.90;;;;;;4991235;28;20058;-64
2022/03/05 12:30:38;;;;;;;24.40;14.38;;;6.50;99.90;;;;;;4993163;28;20046;-66
2022/03/05 12:33:06;;;;;;;26.25;15.18;;;6.50;99.90;;;;;;4991659;28;20065;-65
2022/03/05 12:35:33;;;;;;;25.52;14.35;;;6.60;99.90;;;;;;4991126;28;20054;-65
2022/03/05 12:37:59;;;;;;;22.38;13.73;;;6.70;99.90;;;;;;4991929;28;20051;-66
2022/03/05 12:40:26;;;;;;;23.05;13.68;;;6.70;99.90;;;;;;4991783;28;20128;-63